| Date | Time | Temp. (oF) | Dew Point (oF) | Rel. Hum. (%) | Press. (in.) | Wind Dir. | Wind Speed (mph) | Hourly Rainfall (in.) |
|
|---|---|---|---|---|---|---|---|---|---|
| 1 | 07/22 | 00:00 | 78 | 73 | 87 | 29.89 | SSW | 2 | 0.00 |
| 2 | 07/21 | 23:00 | 79 | 73 | 83 | 29.89 | SW | 0 | 0.00 |
| 3 | 07/21 | 22:00 | 80 | 72 | 79 | 29.88 | SSW | 3 | 0.00 |
| 4 | 07/21 | 21:00 | 82 | 74 | 77 | 29.87 | S | 4 | 0.00 |
| 5 | 07/21 | 20:00 | 84 | 73 | 72 | 29.86 | SSE | 3 | 0.00 |
| 6 | 07/21 | 19:00 | 86 | 71 | 62 | 29.85 | SSE | 1 | 0.00 |
| 7 | 07/21 | 18:00 | 89 | 71 | 57 | 29.87 | SSE | 5 | 0.00 |
| 8 | 07/21 | 17:00 | 91 | 71 | 54 | 29.87 | SSE | 3 | 0.00 |
| 9 | 07/21 | 16:00 | 92 | 72 | 54 | 29.90 | SSE | 6 | 0.00 |
| 10 | 07/21 | 15:00 | 91 | 72 | 55 | 29.90 | SW | 3 | 0.00 |
| 11 | 07/21 | 14:00 | 91 | 71 | 53 | 29.92 | S | 3 | 0.00 |
| 12 | 07/21 | 13:00 | 89 | 70 | 55 | 29.93 | WSW | 4 | 0.00 |
| 13 | 07/21 | 12:00 | 88 | 70 | 57 | 29.94 | SSE | 5 | 0.00 |
| 14 | 07/21 | 11:00 | 88 | 70 | 56 | 29.94 | NE | 4 | 0.00 |
| 15 | 07/21 | 10:00 | 84 | 70 | 64 | 29.95 | N | 3 | 0.00 |
| 16 | 07/21 | 09:00 | 80 | 70 | 72 | 29.96 | N | 5 | 0.00 |
| 17 | 07/21 | 08:00 | 77 | 70 | 81 | 29.96 | NW | 4 | 0.00 |
| 18 | 07/21 | 07:00 | 74 | 69 | 87 | 29.94 | SSW | 1 | 0.00 |
| 19 | 07/21 | 06:00 | 73 | 68 | 86 | 29.91 | W | 1 | 0.00 |
| 20 | 07/21 | 05:00 | 73 | 70 | 92 | 29.90 | SSW | 0 | 0.00 |
| 21 | 07/21 | 04:00 | 74 | 70 | 88 | 29.89 | SSW | 0 | 0.00 |
| 22 | 07/21 | 03:00 | 75 | 71 | 89 | 29.89 | SSW | 1 | 0.00 |
| 23 | 07/21 | 02:00 | 76 | 72 | 88 | 29.90 | SW | 1 | 0.00 |
| 24 | 07/21 | 01:00 | 77 | 71 | 82 | 29.90 | SW | 0 | 0.00 |